sensor_id;sensor_type;location;lat;lon;timestamp;P1;durP1;ratioP1;P2;durP2;ratioP2
49610;SDS011;35515;48.766;9.176;2022-07-23T00:00:56;6.90;;;4.70;;
49610;SDS011;35515;48.766;9.176;2022-07-23T00:03:23;6.40;;;4.38;;
49610;SDS011;35515;48.766;9.176;2022-07-23T00:05:51;8.60;;;4.95;;
49610;SDS011;35515;48.766;9.176;2022-07-23T00:08:17;5.20;;;4.55;;
49610;SDS011;35515;48.766;9.176;2022-07-23T00:10:44;7.57;;;4.63;;
49610;SDS011;35515;48.766;9.176;2022-07-23T00:13:11;6.75;;;4.32;;
49610;SDS011;35515;48.766;9.176;2022-07-23T00:15:37;6.68;;;4.60;;
49610;SDS011;35515;48.766;9.176;2022-07-23T00:18:04;7.85;;;4.00;;
49610;SDS011;35515;48.766;9.176;2022-07-23T00:20:31;5.75;;;4.20;;
49610;SDS011;35515;48.766;9.176;2022-07-23T00:22:59;5.50;;;4.60;;
49610;SDS011;35515;48.766;9.176;2022-07-23T00:25:26;6.38;;;4.50;;
49610;SDS011;35515;48.766;9.176;2022-07-23T00:27:52;6.78;;;4.25;;
49610;SDS011;35515;48.766;9.176;2022-07-23T00:30:19;4.57;;;4.07;;
49610;SDS011;35515;48.766;9.176;2022-07-23T00:32:46;5.68;;;4.57;;
49610;SDS011;35515;48.766;9.176;2022-07-23T00:35:13;6.60;;;4.10;;
49610;SDS011;35515;48.766;9.176;2022-07-23T00:37:40;5.65;;;4.00;;
49610;SDS011;35515;48.766;9.176;2022-07-23T00:40:10;4.80;;;4.13;;
49610;SDS011;35515;48.766;9.176;2022-07-23T00:42:37;6.53;;;4.03;;
49610;SDS011;35515;48.766;9.176;2022-07-23T00:45:04;5.80;;;3.70;;
49610;SDS011;35515;48.766;9.176;2022-07-23T00:47:32;5.65;;;3.83;;
49610;SDS011;35515;48.766;9.176;2022-07-23T00:49:59;6.68;;;4.15;;
49610;SDS011;35515;48.766;9.176;2022-07-23T00:52:26;4.68;;;4.18;;
49610;SDS011;35515;48.766;9.176;2022-07-23T00:54:52;5.50;;;3.88;;
49610;SDS011;35515;48.766;9.176;2022-07-23T00:57:20;4.60;;;4.10;;
49610;SDS011;35515;48.766;9.176;2022-07-23T00:59:47;4.32;;;3.85;;
49610;SDS011;35515;48.766;9.176;2022-07-23T01:02:14;4.82;;;4.05;;
49610;SDS011;35515;48.766;9.176;2022-07-23T01:04:40;5.22;;;4.00;;
49610;SDS011;35515;48.766;9.176;2022-07-23T01:07:07;4.47;;;4.07;;
49610;SDS011;35515;48.766;9.176;2022-07-23T01:09:33;4.10;;;3.70;;
49610;SDS011;35515;48.766;9.176;2022-07-23T01:12:00;4.85;;;3.78;;
49610;SDS011;35515;48.766;9.176;2022-07-23T01:14:28;5.55;;;4.00;;
49610;SDS011;35515;48.766;9.176;2022-07-23T01:16:55;4.57;;;3.80;;
49610;SDS011;35515;48.766;9.176;2022-07-23T01:19:21;4.95;;;4.13;;
49610;SDS011;35515;48.766;9.176;2022-07-23T01:21:49;4.80;;;4.10;;
49610;SDS011;35515;48.766;9.176;2022-07-23T01:24:18;6.00;;;4.18;;
49610;SDS011;35515;48.766;9.176;2022-07-23T01:26:45;4.90;;;4.18;;
49610;SDS011;35515;48.766;9.176;2022-07-23T01:29:12;5.68;;;4.30;;
49610;SDS011;35515;48.766;9.176;2022-07-23T01:31:39;5.10;;;3.90;;
49610;SDS011;35515;48.766;9.176;2022-07-23T01:34:06;4.50;;;3.75;;
49610;SDS011;35515;48.766;9.176;2022-07-23T01:36:33;5.63;;;4.28;;
49610;SDS011;35515;48.766;9.176;2022-07-23T01:39:00;5.18;;;3.97;;
49610;SDS011;35515;48.766;9.176;2022-07-23T01:41:29;4.75;;;3.90;;
49610;SDS011;35515;48.766;9.176;2022-07-23T01:43:56;4.88;;;4.00;;
49610;SDS011;35515;48.766;9.176;2022-07-23T01:46:23;5.28;;;3.78;;
49610;SDS011;35515;48.766;9.176;2022-07-23T01:48:49;5.38;;;4.20;;
49610;SDS011;35515;48.766;9.176;2022-07-23T01:51:16;5.22;;;3.80;;
49610;SDS011;35515;48.766;9.176;2022-07-23T01:53:42;4.93;;;3.78;;
49610;SDS011;35515;48.766;9.176;2022-07-23T01:56:09;7.07;;;4.47;;
49610;SDS011;35515;48.766;9.176;2022-07-23T01:58:37;4.60;;;3.88;;
49610;SDS011;35515;48.766;9.176;2022-07-23T02:01:04;6.63;;;3.95;;
49610;SDS011;35515;48.766;9.176;2022-07-23T02:03:30;4.80;;;3.63;;
49610;SDS011;35515;48.766;9.176;2022-07-23T02:05:57;5.78;;;4.28;;
49610;SDS011;35515;48.766;9.176;2022-07-23T02:08:24;4.80;;;4.03;;
49610;SDS011;35515;48.766;9.176;2022-07-23T02:10:50;5.70;;;4.03;;
49610;SDS011;35515;48.766;9.176;2022-07-23T02:13:17;5.30;;;3.90;;
49610;SDS011;35515;48.766;9.176;2022-07-23T02:15:45;6.10;;;3.45;;
49610;SDS011;35515;48.766;9.176;2022-07-23T02:18:13;5.45;;;3.92;;
49610;SDS011;35515;48.766;9.176;2022-07-23T02:20:39;7.13;;;4.10;;
49610;SDS011;35515;48.766;9.176;2022-07-23T02:23:06;8.38;;;4.07;;
49610;SDS011;35515;48.766;9.176;2022-07-23T02:25:33;4.90;;;3.95;;
49610;SDS011;35515;48.766;9.176;2022-07-23T02:28:00;5.35;;;4.10;;
49610;SDS011;35515;48.766;9.176;2022-07-23T02:30:27;5.75;;;4.35;;
49610;SDS011;35515;48.766;9.176;2022-07-23T02:32:55;4.25;;;3.85;;
49610;SDS011;35515;48.766;9.176;2022-07-23T02:35:22;5.93;;;4.18;;
49610;SDS011;35515;48.766;9.176;2022-07-23T02:37:49;5.25;;;4.53;;
49610;SDS011;35515;48.766;9.176;2022-07-23T02:40:15;5.85;;;3.80;;
49610;SDS011;35515;48.766;9.176;2022-07-23T02:42:42;5.88;;;4.07;;
49610;SDS011;35515;48.766;9.176;2022-07-23T02:45:09;4.32;;;3.83;;
49610;SDS011;35515;48.766;9.176;2022-07-23T02:47:36;5.38;;;4.15;;
49610;SDS011;35515;48.766;9.176;2022-07-23T02:50:04;4.50;;;3.95;;
49610;SDS011;35515;48.766;9.176;2022-07-23T02:52:32;4.70;;;3.47;;
49610;SDS011;35515;48.766;9.176;2022-07-23T02:54:58;5.57;;;3.95;;
49610;SDS011;35515;48.766;9.176;2022-07-23T02:57:25;7.75;;;4.63;;
49610;SDS011;35515;48.766;9.176;2022-07-23T02:59:51;4.53;;;3.92;;
49610;SDS011;35515;48.766;9.176;2022-07-23T03:02:18;4.60;;;4.05;;
49610;SDS011;35515;48.766;9.176;2022-07-23T03:04:45;5.75;;;3.97;;
49610;SDS011;35515;48.766;9.176;2022-07-23T03:07:13;4.60;;;3.95;;
49610;SDS011;35515;48.766;9.176;2022-07-23T03:09:39;4.90;;;4.20;;
49610;SDS011;35515;48.766;9.176;2022-07-23T03:12:06;5.82;;;4.10;;
49610;SDS011;35515;48.766;9.176;2022-07-23T03:14:33;5.45;;;4.50;;
49610;SDS011;35515;48.766;9.176;2022-07-23T03:17:00;5.65;;;4.50;;
49610;SDS011;35515;48.766;9.176;2022-07-23T03:19:26;5.38;;;4.75;;
49610;SDS011;35515;48.766;9.176;2022-07-23T03:21:53;6.78;;;4.70;;
49610;SDS011;35515;48.766;9.176;2022-07-23T03:24:21;7.43;;;4.50;;
49610;SDS011;35515;48.766;9.176;2022-07-23T03:26:48;6.57;;;4.35;;
49610;SDS011;35515;48.766;9.176;2022-07-23T03:29:15;6.78;;;4.25;;
49610;SDS011;35515;48.766;9.176;2022-07-23T03:31:42;5.18;;;4.38;;
49610;SDS011;35515;48.766;9.176;2022-07-23T03:34:08;5.75;;;4.82;;
49610;SDS011;35515;48.766;9.176;2022-07-23T03:36:35;6.25;;;4.78;;
49610;SDS011;35515;48.766;9.176;2022-07-23T03:39:02;5.28;;;4.07;;
49610;SDS011;35515;48.766;9.176;2022-07-23T03:41:30;7.22;;;5.05;;
49610;SDS011;35515;48.766;9.176;2022-07-23T03:43:56;5.65;;;4.55;;
49610;SDS011;35515;48.766;9.176;2022-07-23T03:46:23;5.75;;;4.60;;
49610;SDS011;35515;48.766;9.176;2022-07-23T03:48:49;5.13;;;4.00;;
49610;SDS011;35515;48.766;9.176;2022-07-23T03:51:16;6.13;;;4.20;;
49610;SDS011;35515;48.766;9.176;2022-07-23T03:53:43;6.43;;;4.53;;
49610;SDS011;35515;48.766;9.176;2022-07-23T03:56:09;5.70;;;4.55;;
49610;SDS011;35515;48.766;9.176;2022-07-23T03:58:37;6.97;;;4.45;;
49610;SDS011;35515;48.766;9.176;2022-07-23T04:01:03;7.90;;;5.10;;
49610;SDS011;35515;48.766;9.176;2022-07-23T04:03:30;6.30;;;4.78;;
49610;SDS011;35515;48.766;9.176;2022-07-23T04:05:57;6.93;;;4.78;;
49610;SDS011;35515;48.766;9.176;2022-07-23T04:08:23;5.18;;;4.57;;
49610;SDS011;35515;48.766;9.176;2022-07-23T04:10:50;6.80;;;4.97;;
49610;SDS011;35515;48.766;9.176;2022-07-23T04:13:16;8.73;;;5.55;;
49610;SDS011;35515;48.766;9.176;2022-07-23T04:15:44;6.95;;;4.95;;
49610;SDS011;35515;48.766;9.176;2022-07-23T04:18:11;6.25;;;4.60;;
49610;SDS011;35515;48.766;9.176;2022-07-23T04:20:38;6.45;;;5.10;;
49610;SDS011;35515;48.766;9.176;2022-07-23T04:23:05;5.97;;;4.90;;
49610;SDS011;35515;48.766;9.176;2022-07-23T04:25:31;6.90;;;4.82;;
49610;SDS011;35515;48.766;9.176;2022-07-23T04:27:58;5.68;;;4.38;;
49610;SDS011;35515;48.766;9.176;2022-07-23T04:30:24;8.30;;;4.80;;
49610;SDS011;35515;48.766;9.176;2022-07-23T04:32:52;6.15;;;4.70;;
49610;SDS011;35515;48.766;9.176;2022-07-23T04:35:19;5.55;;;4.40;;
49610;SDS011;35515;48.766;9.176;2022-07-23T04:37:46;5.22;;;4.70;;
49610;SDS011;35515;48.766;9.176;2022-07-23T04:40:12;6.07;;;4.70;;
49610;SDS011;35515;48.766;9.176;2022-07-23T04:42:39;5.35;;;4.32;;
49610;SDS011;35515;48.766;9.176;2022-07-23T04:45:06;6.72;;;4.95;;
49610;SDS011;35515;48.766;9.176;2022-07-23T04:47:33;5.53;;;4.63;;
49610;SDS011;35515;48.766;9.176;2022-07-23T04:50:01;6.68;;;5.10;;
49610;SDS011;35515;48.766;9.176;2022-07-23T04:52:28;6.00;;;4.78;;
49610;SDS011;35515;48.766;9.176;2022-07-23T04:54:55;7.30;;;4.50;;
49610;SDS011;35515;48.766;9.176;2022-07-23T04:57:21;5.15;;;4.50;;
49610;SDS011;35515;48.766;9.176;2022-07-23T04:59:48;5.82;;;5.15;;
49610;SDS011;35515;48.766;9.176;2022-07-23T05:02:15;6.32;;;5.07;;
49610;SDS011;35515;48.766;9.176;2022-07-23T05:04:41;6.13;;;4.47;;
49610;SDS011;35515;48.766;9.176;2022-07-23T05:07:09;6.38;;;4.90;;
49610;SDS011;35515;48.766;9.176;2022-07-23T05:09:36;8.05;;;4.85;;
49610;SDS011;35515;48.766;9.176;2022-07-23T05:12:03;5.70;;;5.00;;
49610;SDS011;35515;48.766;9.176;2022-07-23T05:14:31;4.95;;;4.45;;
49610;SDS011;35515;48.766;9.176;2022-07-23T05:16:58;9.18;;;5.45;;
49610;SDS011;35515;48.766;9.176;2022-07-23T05:19:24;5.78;;;4.55;;
49610;SDS011;35515;48.766;9.176;2022-07-23T05:21:51;5.38;;;4.68;;
49610;SDS011;35515;48.766;9.176;2022-07-23T05:24:19;6.10;;;4.80;;
49610;SDS011;35515;48.766;9.176;2022-07-23T05:26:46;6.10;;;4.95;;
49610;SDS011;35515;48.766;9.176;2022-07-23T05:29:12;6.18;;;4.97;;
49610;SDS011;35515;48.766;9.176;2022-07-23T05:31:39;5.85;;;4.50;;
49610;SDS011;35515;48.766;9.176;2022-07-23T05:34:05;6.38;;;4.63;;
49610;SDS011;35515;48.766;9.176;2022-07-23T05:36:32;6.38;;;4.90;;
49610;SDS011;35515;48.766;9.176;2022-07-23T05:38:59;5.63;;;5.00;;
49610;SDS011;35515;48.766;9.176;2022-07-23T05:41:27;6.70;;;5.63;;
49610;SDS011;35515;48.766;9.176;2022-07-23T05:43:53;10.68;;;5.60;;
49610;SDS011;35515;48.766;9.176;2022-07-23T05:46:20;6.65;;;5.07;;
49610;SDS011;35515;48.766;9.176;2022-07-23T05:48:47;5.80;;;4.97;;
49610;SDS011;35515;48.766;9.176;2022-07-23T05:51:18;7.35;;;5.35;;
49610;SDS011;35515;48.766;9.176;2022-07-23T05:53:45;7.60;;;5.20;;
49610;SDS011;35515;48.766;9.176;2022-07-23T05:56:12;6.00;;;5.40;;
49610;SDS011;35515;48.766;9.176;2022-07-23T05:58:40;7.60;;;5.90;;
49610;SDS011;35515;48.766;9.176;2022-07-23T06:01:07;7.68;;;5.82;;
49610;SDS011;35515;48.766;9.176;2022-07-23T06:03:34;5.80;;;5.18;;
49610;SDS011;35515;48.766;9.176;2022-07-23T06:06:01;7.07;;;5.20;;
49610;SDS011;35515;48.766;9.176;2022-07-23T06:08:27;6.68;;;5.82;;
49610;SDS011;35515;48.766;9.176;2022-07-23T06:10:54;7.47;;;5.32;;
49610;SDS011;35515;48.766;9.176;2022-07-23T06:13:20;9.00;;;5.72;;
49610;SDS011;35515;48.766;9.176;2022-07-23T06:15:49;7.03;;;5.70;;
49610;SDS011;35515;48.766;9.176;2022-07-23T06:18:15;9.60;;;5.88;;
49610;SDS011;35515;48.766;9.176;2022-07-23T06:20:42;8.50;;;5.20;;
49610;SDS011;35515;48.766;9.176;2022-07-23T06:23:10;7.65;;;5.30;;
49610;SDS011;35515;48.766;9.176;2022-07-23T06:25:37;9.73;;;5.63;;
49610;SDS011;35515;48.766;9.176;2022-07-23T06:28:04;5.93;;;5.13;;
49610;SDS011;35515;48.766;9.176;2022-07-23T06:30:30;7.13;;;5.72;;
49610;SDS011;35515;48.766;9.176;2022-07-23T06:32:58;6.40;;;5.43;;
49610;SDS011;35515;48.766;9.176;2022-07-23T06:35:25;6.03;;;5.13;;
49610;SDS011;35515;48.766;9.176;2022-07-23T06:37:51;5.80;;;5.05;;
49610;SDS011;35515;48.766;9.176;2022-07-23T06:40:18;5.18;;;4.65;;
49610;SDS011;35515;48.766;9.176;2022-07-23T06:42:45;6.40;;;5.20;;
49610;SDS011;35515;48.766;9.176;2022-07-23T06:45:12;8.45;;;5.70;;
49610;SDS011;35515;48.766;9.176;2022-07-23T06:47:38;7.60;;;5.63;;
49610;SDS011;35515;48.766;9.176;2022-07-23T06:50:08;8.73;;;6.10;;
49610;SDS011;35515;48.766;9.176;2022-07-23T06:52:35;6.35;;;4.88;;
49610;SDS011;35515;48.766;9.176;2022-07-23T06:55:02;7.95;;;5.65;;
49610;SDS011;35515;48.766;9.176;2022-07-23T06:57:29;6.95;;;5.47;;
49610;SDS011;35515;48.766;9.176;2022-07-23T06:59:56;7.72;;;5.63;;
49610;SDS011;35515;48.766;9.176;2022-07-23T07:02:22;6.20;;;5.30;;
49610;SDS011;35515;48.766;9.176;2022-07-23T07:04:49;6.10;;;5.05;;
49610;SDS011;35515;48.766;9.176;2022-07-23T07:07:17;6.28;;;5.57;;
49610;SDS011;35515;48.766;9.176;2022-07-23T07:09:43;7.32;;;5.15;;
49610;SDS011;35515;48.766;9.176;2022-07-23T07:12:10;9.98;;;6.00;;
49610;SDS011;35515;48.766;9.176;2022-07-23T07:14:37;7.93;;;5.70;;
49610;SDS011;35515;48.766;9.176;2022-07-23T07:17:04;6.50;;;5.75;;
49610;SDS011;35515;48.766;9.176;2022-07-23T07:19:31;7.50;;;6.10;;
49610;SDS011;35515;48.766;9.176;2022-07-23T07:21:57;7.00;;;5.40;;
49610;SDS011;35515;48.766;9.176;2022-07-23T07:24:25;6.80;;;4.93;;
49610;SDS011;35515;48.766;9.176;2022-07-23T07:26:52;7.88;;;5.40;;
49610;SDS011;35515;48.766;9.176;2022-07-23T07:29:18;9.32;;;6.18;;
49610;SDS011;35515;48.766;9.176;2022-07-23T07:31:45;8.07;;;5.47;;
49610;SDS011;35515;48.766;9.176;2022-07-23T07:34:11;8.20;;;5.88;;
49610;SDS011;35515;48.766;9.176;2022-07-23T07:36:38;7.40;;;5.88;;
49610;SDS011;35515;48.766;9.176;2022-07-23T07:39:05;9.75;;;5.65;;
49610;SDS011;35515;48.766;9.176;2022-07-23T07:41:36;6.38;;;5.30;;
49610;SDS011;35515;48.766;9.176;2022-07-23T07:44:03;6.32;;;5.55;;
49610;SDS011;35515;48.766;9.176;2022-07-23T07:46:29;7.50;;;5.93;;
49610;SDS011;35515;48.766;9.176;2022-07-23T07:48:56;7.57;;;6.15;;
49610;SDS011;35515;48.766;9.176;2022-07-23T07:51:23;8.10;;;6.45;;
49610;SDS011;35515;48.766;9.176;2022-07-23T07:53:50;7.47;;;5.93;;
49610;SDS011;35515;48.766;9.176;2022-07-23T07:56:20;8.70;;;5.47;;
49610;SDS011;35515;48.766;9.176;2022-07-23T07:58:48;9.77;;;6.82;;
49610;SDS011;35515;48.766;9.176;2022-07-23T08:01:14;6.53;;;5.43;;
49610;SDS011;35515;48.766;9.176;2022-07-23T08:03:42;7.78;;;6.03;;
49610;SDS011;35515;48.766;9.176;2022-07-23T08:06:11;6.70;;;6.03;;
49610;SDS011;35515;48.766;9.176;2022-07-23T08:08:38;12.07;;;9.38;;
49610;SDS011;35515;48.766;9.176;2022-07-23T08:11:04;7.18;;;6.47;;
49610;SDS011;35515;48.766;9.176;2022-07-23T08:13:31;9.60;;;7.45;;
49610;SDS011;35515;48.766;9.176;2022-07-23T08:15:59;7.13;;;5.93;;
49610;SDS011;35515;48.766;9.176;2022-07-23T08:18:25;6.85;;;5.57;;
49610;SDS011;35515;48.766;9.176;2022-07-23T08:20:52;5.88;;;5.03;;
49610;SDS011;35515;48.766;9.176;2022-07-23T08:23:18;6.80;;;5.72;;
49610;SDS011;35515;48.766;9.176;2022-07-23T08:25:46;6.28;;;5.10;;
49610;SDS011;35515;48.766;9.176;2022-07-23T08:28:13;6.63;;;5.22;;
49610;SDS011;35515;48.766;9.176;2022-07-23T08:30:41;6.72;;;5.60;;
49610;SDS011;35515;48.766;9.176;2022-07-23T08:33:11;7.22;;;6.00;;
49610;SDS011;35515;48.766;9.176;2022-07-23T08:35:40;6.73;;;5.33;;
49610;SDS011;35515;48.766;9.176;2022-07-23T08:38:08;7.63;;;5.50;;
49610;SDS011;35515;48.766;9.176;2022-07-23T08:40:36;6.78;;;5.55;;
49610;SDS011;35515;48.766;9.176;2022-07-23T08:43:05;6.82;;;6.00;;
49610;SDS011;35515;48.766;9.176;2022-07-23T08:45:35;7.68;;;6.13;;
49610;SDS011;35515;48.766;9.176;2022-07-23T08:48:03;7.00;;;5.18;;
49610;SDS011;35515;48.766;9.176;2022-07-23T08:50:32;7.20;;;5.25;;
49610;SDS011;35515;48.766;9.176;2022-07-23T08:53:01;6.10;;;5.50;;
49610;SDS011;35515;48.766;9.176;2022-07-23T08:55:31;6.50;;;5.23;;
49610;SDS011;35515;48.766;9.176;2022-07-23T08:57:58;6.97;;;5.22;;
49610;SDS011;35515;48.766;9.176;2022-07-23T09:00:24;7.88;;;5.55;;
49610;SDS011;35515;48.766;9.176;2022-07-23T09:02:51;7.40;;;6.18;;
49610;SDS011;35515;48.766;9.176;2022-07-23T09:05:19;8.68;;;5.85;;
49610;SDS011;35515;48.766;9.176;2022-07-23T09:08:09;7.07;;;5.95;;
49610;SDS011;35515;48.766;9.176;2022-07-23T09:10:48;7.20;;;5.43;;
49610;SDS011;35515;48.766;9.176;2022-07-23T09:16:06;6.10;;;5.43;;
49610;SDS011;35515;48.766;9.176;2022-07-23T09:21:05;7.95;;;6.15;;
49610;SDS011;35515;48.766;9.176;2022-07-23T09:23:52;6.80;;;5.57;;
49610;SDS011;35515;48.766;9.176;2022-07-23T09:26:27;6.15;;;5.30;;
49610;SDS011;35515;48.766;9.176;2022-07-23T09:29:00;5.53;;;4.53;;
49610;SDS011;35515;48.766;9.176;2022-07-23T09:31:32;9.25;;;6.00;;
49610;SDS011;35515;48.766;9.176;2022-07-23T09:34:07;7.43;;;5.20;;
49610;SDS011;35515;48.766;9.176;2022-07-23T09:36:34;7.72;;;5.13;;
49610;SDS011;35515;48.766;9.176;2022-07-23T09:39:02;5.75;;;5.13;;
49610;SDS011;35515;48.766;9.176;2022-07-23T09:41:33;6.45;;;5.18;;
49610;SDS011;35515;48.766;9.176;2022-07-23T09:44:06;7.35;;;4.93;;
49610;SDS011;35515;48.766;9.176;2022-07-23T09:46:34;6.47;;;4.60;;
49610;SDS011;35515;48.766;9.176;2022-07-23T09:49:09;5.82;;;5.00;;
49610;SDS011;35515;48.766;9.176;2022-07-23T09:51:42;6.82;;;5.35;;
49610;SDS011;35515;48.766;9.176;2022-07-23T09:54:20;6.50;;;5.03;;
49610;SDS011;35515;48.766;9.176;2022-07-23T09:56:53;6.00;;;5.00;;
49610;SDS011;35515;48.766;9.176;2022-07-23T09:59:23;6.18;;;5.47;;
49610;SDS011;35515;48.766;9.176;2022-07-23T10:01:52;7.25;;;5.47;;
49610;SDS011;35515;48.766;9.176;2022-07-23T10:04:20;7.63;;;5.82;;
49610;SDS011;35515;48.766;9.176;2022-07-23T10:06:47;7.80;;;5.40;;
49610;SDS011;35515;48.766;9.176;2022-07-23T10:09:16;8.63;;;5.82;;
49610;SDS011;35515;48.766;9.176;2022-07-23T10:11:51;6.70;;;5.53;;
49610;SDS011;35515;48.766;9.176;2022-07-23T10:14:22;6.22;;;5.47;;
49610;SDS011;35515;48.766;9.176;2022-07-23T10:16:50;7.82;;;5.78;;
49610;SDS011;35515;48.766;9.176;2022-07-23T10:19:17;8.00;;;5.35;;
49610;SDS011;35515;48.766;9.176;2022-07-23T10:21:45;6.78;;;5.35;;
49610;SDS011;35515;48.766;9.176;2022-07-23T10:24:20;5.97;;;5.37;;
49610;SDS011;35515;48.766;9.176;2022-07-23T10:26:59;8.02;;;5.53;;
49610;SDS011;35515;48.766;9.176;2022-07-23T10:29:38;7.07;;;5.38;;
49610;SDS011;35515;48.766;9.176;2022-07-23T10:32:16;8.52;;;6.05;;
49610;SDS011;35515;48.766;9.176;2022-07-23T10:34:52;7.68;;;5.30;;
49610;SDS011;35515;48.766;9.176;2022-07-23T10:37:27;6.22;;;4.65;;
49610;SDS011;35515;48.766;9.176;2022-07-23T10:40:13;6.97;;;5.28;;
49610;SDS011;35515;48.766;9.176;2022-07-23T10:42:42;6.20;;;5.15;;
49610;SDS011;35515;48.766;9.176;2022-07-23T10:45:22;6.80;;;5.63;;
49610;SDS011;35515;48.766;9.176;2022-07-23T10:47:53;6.15;;;4.80;;
49610;SDS011;35515;48.766;9.176;2022-07-23T10:50:21;5.68;;;4.82;;
49610;SDS011;35515;48.766;9.176;2022-07-23T10:53:08;6.35;;;5.13;;
49610;SDS011;35515;48.766;9.176;2022-07-23T10:55:43;5.43;;;4.60;;
49610;SDS011;35515;48.766;9.176;2022-07-23T10:58:12;6.57;;;5.55;;
49610;SDS011;35515;48.766;9.176;2022-07-23T11:00:44;6.43;;;5.05;;
49610;SDS011;35515;48.766;9.176;2022-07-23T11:08:28;6.65;;;5.18;;
49610;SDS011;35515;48.766;9.176;2022-07-23T11:11:07;7.03;;;5.10;;
49610;SDS011;35515;48.766;9.176;2022-07-23T11:13:36;6.38;;;5.15;;
49610;SDS011;35515;48.766;9.176;2022-07-23T11:16:22;6.80;;;5.38;;
49610;SDS011;35515;48.766;9.176;2022-07-23T11:24:20;6.05;;;5.45;;
49610;SDS011;35515;48.766;9.176;2022-07-23T11:26:51;6.15;;;5.55;;
49610;SDS011;35515;48.766;9.176;2022-07-23T11:29:42;6.07;;;5.22;;
49610;SDS011;35515;48.766;9.176;2022-07-23T11:35:21;6.35;;;4.97;;
49610;SDS011;35515;48.766;9.176;2022-07-23T11:37:49;6.13;;;4.80;;
49610;SDS011;35515;48.766;9.176;2022-07-23T11:40:19;6.18;;;5.57;;
49610;SDS011;35515;48.766;9.176;2022-07-23T11:42:53;6.28;;;5.45;;
49610;SDS011;35515;48.766;9.176;2022-07-23T11:45:21;8.60;;;5.30;;
49610;SDS011;35515;48.766;9.176;2022-07-23T11:47:49;6.57;;;5.38;;
49610;SDS011;35515;48.766;9.176;2022-07-23T11:50:15;5.95;;;5.35;;
49610;SDS011;35515;48.766;9.176;2022-07-23T11:52:42;6.82;;;5.13;;
49610;SDS011;35515;48.766;9.176;2022-07-23T11:55:10;6.70;;;5.38;;
49610;SDS011;35515;48.766;9.176;2022-07-23T11:57:38;6.80;;;5.68;;
49610;SDS011;35515;48.766;9.176;2022-07-23T12:00:08;7.82;;;5.93;;
49610;SDS011;35515;48.766;9.176;2022-07-23T12:02:36;6.10;;;5.45;;
49610;SDS011;35515;48.766;9.176;2022-07-23T12:05:03;6.35;;;5.07;;
49610;SDS011;35515;48.766;9.176;2022-07-23T12:07:31;7.15;;;5.13;;
49610;SDS011;35515;48.766;9.176;2022-07-23T12:10:00;7.55;;;5.57;;
49610;SDS011;35515;48.766;9.176;2022-07-23T12:12:34;5.93;;;5.30;;
49610;SDS011;35515;48.766;9.176;2022-07-23T12:15:02;6.95;;;5.65;;
49610;SDS011;35515;48.766;9.176;2022-07-23T12:17:31;6.35;;;5.63;;
49610;SDS011;35515;48.766;9.176;2022-07-23T12:19:59;7.40;;;5.80;;
49610;SDS011;35515;48.766;9.176;2022-07-23T12:22:33;7.15;;;6.13;;
49610;SDS011;35515;48.766;9.176;2022-07-23T12:25:01;6.90;;;5.88;;
49610;SDS011;35515;48.766;9.176;2022-07-23T12:27:30;7.18;;;5.55;;
49610;SDS011;35515;48.766;9.176;2022-07-23T12:29:57;6.15;;;5.55;;
49610;SDS011;35515;48.766;9.176;2022-07-23T12:32:25;9.07;;;5.60;;
49610;SDS011;35515;48.766;9.176;2022-07-23T12:35:03;6.75;;;5.95;;
49610;SDS011;35515;48.766;9.176;2022-07-23T12:37:31;9.50;;;5.75;;
49610;SDS011;35515;48.766;9.176;2022-07-23T12:42:55;8.80;;;6.25;;
49610;SDS011;35515;48.766;9.176;2022-07-23T12:45:23;7.00;;;6.25;;
49610;SDS011;35515;48.766;9.176;2022-07-23T12:47:52;8.05;;;6.28;;
49610;SDS011;35515;48.766;9.176;2022-07-23T12:50:38;8.82;;;6.63;;
49610;SDS011;35515;48.766;9.176;2022-07-23T12:53:10;6.68;;;5.82;;
49610;SDS011;35515;48.766;9.176;2022-07-23T12:55:39;8.40;;;6.25;;
49610;SDS011;35515;48.766;9.176;2022-07-23T12:58:08;6.80;;;5.75;;
49610;SDS011;35515;48.766;9.176;2022-07-23T13:00:52;6.90;;;6.13;;
49610;SDS011;35515;48.766;9.176;2022-07-23T13:03:20;5.82;;;5.22;;
49610;SDS011;35515;48.766;9.176;2022-07-23T13:05:49;7.03;;;6.20;;
49610;SDS011;35515;48.766;9.176;2022-07-23T13:08:16;7.65;;;6.35;;
49610;SDS011;35515;48.766;9.176;2022-07-23T13:10:42;9.35;;;6.97;;
49610;SDS011;35515;48.766;9.176;2022-07-23T13:13:12;8.05;;;6.57;;
49610;SDS011;35515;48.766;9.176;2022-07-23T13:15:38;9.20;;;7.18;;
49610;SDS011;35515;48.766;9.176;2022-07-23T13:18:05;7.65;;;5.72;;
49610;SDS011;35515;48.766;9.176;2022-07-23T13:20:31;9.05;;;6.00;;
49610;SDS011;35515;48.766;9.176;2022-07-23T13:23:00;9.40;;;6.38;;
49610;SDS011;35515;48.766;9.176;2022-07-23T13:25:27;6.68;;;5.97;;
49610;SDS011;35515;48.766;9.176;2022-07-23T13:27:53;8.05;;;6.38;;
49610;SDS011;35515;48.766;9.176;2022-07-23T13:30:20;8.30;;;6.00;;
49610;SDS011;35515;48.766;9.176;2022-07-23T13:32:47;8.65;;;5.55;;
49610;SDS011;35515;48.766;9.176;2022-07-23T13:35:14;8.35;;;5.70;;
49610;SDS011;35515;48.766;9.176;2022-07-23T13:37:41;7.35;;;5.72;;
49610;SDS011;35515;48.766;9.176;2022-07-23T13:40:09;7.15;;;5.53;;
49610;SDS011;35515;48.766;9.176;2022-07-23T13:42:36;7.53;;;5.88;;
49610;SDS011;35515;48.766;9.176;2022-07-23T13:45:03;6.45;;;5.78;;
49610;SDS011;35515;48.766;9.176;2022-07-23T13:47:31;6.93;;;6.22;;
49610;SDS011;35515;48.766;9.176;2022-07-23T13:49:57;8.25;;;6.60;;
49610;SDS011;35515;48.766;9.176;2022-07-23T13:52:24;6.55;;;5.85;;
49610;SDS011;35515;48.766;9.176;2022-07-23T13:54:51;6.45;;;5.40;;
49610;SDS011;35515;48.766;9.176;2022-07-23T13:57:19;6.93;;;5.75;;
49610;SDS011;35515;48.766;9.176;2022-07-23T13:59:45;6.93;;;6.22;;
49610;SDS011;35515;48.766;9.176;2022-07-23T14:02:12;9.10;;;6.57;;
49610;SDS011;35515;48.766;9.176;2022-07-23T14:04:41;9.85;;;6.70;;
49610;SDS011;35515;48.766;9.176;2022-07-23T14:07:08;9.55;;;6.70;;
49610;SDS011;35515;48.766;9.176;2022-07-23T14:09:35;7.75;;;6.38;;
49610;SDS011;35515;48.766;9.176;2022-07-23T14:12:02;8.25;;;6.22;;
49610;SDS011;35515;48.766;9.176;2022-07-23T14:14:31;8.43;;;6.07;;
49610;SDS011;35515;48.766;9.176;2022-07-23T14:16:58;7.20;;;6.50;;
49610;SDS011;35515;48.766;9.176;2022-07-23T14:19:25;7.93;;;7.13;;
49610;SDS011;35515;48.766;9.176;2022-07-23T14:21:51;7.20;;;6.50;;
49610;SDS011;35515;48.766;9.176;2022-07-23T14:24:18;7.47;;;6.22;;
49610;SDS011;35515;48.766;9.176;2022-07-23T14:26:45;6.97;;;6.22;;
49610;SDS011;35515;48.766;9.176;2022-07-23T14:29:12;7.03;;;5.97;;
49610;SDS011;35515;48.766;9.176;2022-07-23T14:31:40;7.47;;;6.32;;
49610;SDS011;35515;48.766;9.176;2022-07-23T14:34:07;6.43;;;5.82;;
49610;SDS011;35515;48.766;9.176;2022-07-23T14:36:33;9.25;;;6.50;;
49610;SDS011;35515;48.766;9.176;2022-07-23T14:39:00;7.82;;;6.07;;
49610;SDS011;35515;48.766;9.176;2022-07-23T14:41:27;8.25;;;5.97;;
49610;SDS011;35515;48.766;9.176;2022-07-23T14:43:53;7.65;;;6.88;;
49610;SDS011;35515;48.766;9.176;2022-07-23T14:46:20;6.68;;;5.97;;
49610;SDS011;35515;48.766;9.176;2022-07-23T14:48:48;8.55;;;6.10;;
49610;SDS011;35515;48.766;9.176;2022-07-23T14:51:15;9.32;;;6.45;;
49610;SDS011;35515;48.766;9.176;2022-07-23T14:53:42;6.85;;;6.15;;
49610;SDS011;35515;48.766;9.176;2022-07-23T14:56:08;7.15;;;6.45;;
49610;SDS011;35515;48.766;9.176;2022-07-23T14:58:35;6.85;;;6.15;;
49610;SDS011;35515;48.766;9.176;2022-07-23T15:01:02;6.63;;;5.70;;
49610;SDS011;35515;48.766;9.176;2022-07-23T15:03:28;5.97;;;5.43;;
49610;SDS011;35515;48.766;9.176;2022-07-23T15:05:56;6.88;;;6.05;;
49610;SDS011;35515;48.766;9.176;2022-07-23T15:08:23;7.10;;;6.28;;
49610;SDS011;35515;48.766;9.176;2022-07-23T15:10:49;12.48;;;9.88;;
49610;SDS011;35515;48.766;9.176;2022-07-23T15:13:16;9.85;;;8.02;;
49610;SDS011;35515;48.766;9.176;2022-07-23T15:15:43;8.00;;;6.45;;